sensor_id;sensor_type;location;lat;lon;timestamp;P1;durP1;ratioP1;P2;durP2;ratioP2
10711;SDS011;5407;51.234;6.804;2023-12-29T00:00:40;4.63;;;1.97;;
10711;SDS011;5407;51.234;6.804;2023-12-29T00:03:08;5.33;;;1.73;;
10711;SDS011;5407;51.234;6.804;2023-12-29T00:05:35;4.97;;;1.47;;
10711;SDS011;5407;51.234;6.804;2023-12-29T00:08:02;9.97;;;2.70;;
10711;SDS011;5407;51.234;6.804;2023-12-29T00:10:30;8.80;;;2.67;;
10711;SDS011;5407;51.234;6.804;2023-12-29T00:12:56;6.40;;;1.83;;
10711;SDS011;5407;51.234;6.804;2023-12-29T00:15:23;9.13;;;2.37;;
10711;SDS011;5407;51.234;6.804;2023-12-29T00:17:50;5.53;;;1.90;;
10711;SDS011;5407;51.234;6.804;2023-12-29T00:20:19;5.40;;;2.17;;
10711;SDS011;5407;51.234;6.804;2023-12-29T00:22:46;6.13;;;1.77;;
10711;SDS011;5407;51.234;6.804;2023-12-29T00:25:13;9.70;;;2.40;;
10711;SDS011;5407;51.234;6.804;2023-12-29T00:27:40;6.50;;;2.30;;
10711;SDS011;5407;51.234;6.804;2023-12-29T00:30:09;9.63;;;2.10;;
10711;SDS011;5407;51.234;6.804;2023-12-29T00:32:36;4.60;;;2.00;;
10711;SDS011;5407;51.234;6.804;2023-12-29T00:35:03;7.97;;;1.87;;
10711;SDS011;5407;51.234;6.804;2023-12-29T00:37:31;8.27;;;2.30;;
10711;SDS011;5407;51.234;6.804;2023-12-29T00:39:58;5.40;;;1.90;;
10711;SDS011;5407;51.234;6.804;2023-12-29T00:42:25;6.70;;;1.90;;
10711;SDS011;5407;51.234;6.804;2023-12-29T00:44:52;10.40;;;1.97;;
10711;SDS011;5407;51.234;6.804;2023-12-29T00:47:19;3.80;;;1.80;;
10711;SDS011;5407;51.234;6.804;2023-12-29T00:49:48;7.40;;;2.10;;
10711;SDS011;5407;51.234;6.804;2023-12-29T00:52:15;5.70;;;1.90;;
10711;SDS011;5407;51.234;6.804;2023-12-29T00:54:44;4.60;;;1.80;;
10711;SDS011;5407;51.234;6.804;2023-12-29T00:57:10;5.37;;;1.93;;
10711;SDS011;5407;51.234;6.804;2023-12-29T00:59:37;8.03;;;2.00;;
10711;SDS011;5407;51.234;6.804;2023-12-29T01:02:05;4.73;;;2.03;;
10711;SDS011;5407;51.234;6.804;2023-12-29T01:04:33;8.53;;;1.87;;
10711;SDS011;5407;51.234;6.804;2023-12-29T01:07:00;6.13;;;2.10;;
10711;SDS011;5407;51.234;6.804;2023-12-29T01:09:26;5.33;;;1.83;;
10711;SDS011;5407;51.234;6.804;2023-12-29T01:11:55;5.93;;;1.80;;
10711;SDS011;5407;51.234;6.804;2023-12-29T01:14:21;6.57;;;2.10;;
10711;SDS011;5407;51.234;6.804;2023-12-29T01:16:48;6.93;;;1.97;;
10711;SDS011;5407;51.234;6.804;2023-12-29T01:19:15;6.83;;;2.03;;
10711;SDS011;5407;51.234;6.804;2023-12-29T01:21:42;5.87;;;1.90;;
10711;SDS011;5407;51.234;6.804;2023-12-29T01:24:09;5.20;;;1.80;;
10711;SDS011;5407;51.234;6.804;2023-12-29T01:26:39;9.20;;;2.10;;
10711;SDS011;5407;51.234;6.804;2023-12-29T01:29:07;7.93;;;1.97;;
10711;SDS011;5407;51.234;6.804;2023-12-29T01:31:34;10.23;;;1.93;;
10711;SDS011;5407;51.234;6.804;2023-12-29T01:34:01;9.57;;;2.20;;
10711;SDS011;5407;51.234;6.804;2023-12-29T01:36:28;7.40;;;2.17;;
10711;SDS011;5407;51.234;6.804;2023-12-29T01:38:55;6.47;;;2.30;;
10711;SDS011;5407;51.234;6.804;2023-12-29T01:41:22;9.93;;;1.80;;
10711;SDS011;5407;51.234;6.804;2023-12-29T01:46:55;7.17;;;2.10;;
10711;SDS011;5407;51.234;6.804;2023-12-29T01:49:25;7.13;;;1.97;;
10711;SDS011;5407;51.234;6.804;2023-12-29T01:51:54;10.80;;;2.60;;
10711;SDS011;5407;51.234;6.804;2023-12-29T01:54:24;8.23;;;2.23;;
10711;SDS011;5407;51.234;6.804;2023-12-29T01:56:54;8.87;;;1.93;;
10711;SDS011;5407;51.234;6.804;2023-12-29T01:59:25;6.40;;;2.10;;
10711;SDS011;5407;51.234;6.804;2023-12-29T02:01:55;10.47;;;2.30;;
10711;SDS011;5407;51.234;6.804;2023-12-29T02:04:23;5.70;;;2.00;;
10711;SDS011;5407;51.234;6.804;2023-12-29T02:06:51;10.20;;;2.20;;
10711;SDS011;5407;51.234;6.804;2023-12-29T02:09:18;6.97;;;2.20;;
10711;SDS011;5407;51.234;6.804;2023-12-29T02:11:45;6.20;;;1.90;;
10711;SDS011;5407;51.234;6.804;2023-12-29T02:14:12;8.27;;;2.40;;
10711;SDS011;5407;51.234;6.804;2023-12-29T02:16:41;8.80;;;2.30;;
10711;SDS011;5407;51.234;6.804;2023-12-29T02:19:25;7.90;;;2.23;;
10711;SDS011;5407;51.234;6.804;2023-12-29T02:22:02;9.07;;;2.50;;
10711;SDS011;5407;51.234;6.804;2023-12-29T02:24:30;10.57;;;2.63;;
10711;SDS011;5407;51.234;6.804;2023-12-29T02:27:00;11.20;;;2.50;;
10711;SDS011;5407;51.234;6.804;2023-12-29T02:29:33;7.07;;;2.00;;
10711;SDS011;5407;51.234;6.804;2023-12-29T02:32:00;7.57;;;2.37;;
10711;SDS011;5407;51.234;6.804;2023-12-29T02:34:32;7.03;;;2.13;;
10711;SDS011;5407;51.234;6.804;2023-12-29T02:37:00;11.40;;;2.40;;
10711;SDS011;5407;51.234;6.804;2023-12-29T02:39:28;12.30;;;2.57;;
10711;SDS011;5407;51.234;6.804;2023-12-29T02:41:55;8.87;;;2.33;;
10711;SDS011;5407;51.234;6.804;2023-12-29T02:44:24;8.80;;;2.40;;
10711;SDS011;5407;51.234;6.804;2023-12-29T02:46:51;9.20;;;2.10;;
10711;SDS011;5407;51.234;6.804;2023-12-29T02:49:18;5.33;;;2.20;;
10711;SDS011;5407;51.234;6.804;2023-12-29T02:51:45;8.37;;;2.43;;
10711;SDS011;5407;51.234;6.804;2023-12-29T02:54:15;8.77;;;2.30;;
10711;SDS011;5407;51.234;6.804;2023-12-29T02:56:42;9.80;;;2.27;;
10711;SDS011;5407;51.234;6.804;2023-12-29T02:59:08;11.97;;;2.50;;
10711;SDS011;5407;51.234;6.804;2023-12-29T03:01:37;8.90;;;2.20;;
10711;SDS011;5407;51.234;6.804;2023-12-29T03:04:03;7.80;;;2.30;;
10711;SDS011;5407;51.234;6.804;2023-12-29T03:06:30;9.10;;;2.30;;
10711;SDS011;5407;51.234;6.804;2023-12-29T03:08:57;8.87;;;2.33;;
10711;SDS011;5407;51.234;6.804;2023-12-29T03:11:24;8.93;;;2.63;;
10711;SDS011;5407;51.234;6.804;2023-12-29T03:13:51;12.53;;;2.60;;
10711;SDS011;5407;51.234;6.804;2023-12-29T03:16:18;7.83;;;2.40;;
10711;SDS011;5407;51.234;6.804;2023-12-29T03:18:46;8.70;;;2.50;;
10711;SDS011;5407;51.234;6.804;2023-12-29T03:21:13;9.17;;;2.43;;
10711;SDS011;5407;51.234;6.804;2023-12-29T03:23:41;7.70;;;2.20;;
10711;SDS011;5407;51.234;6.804;2023-12-29T03:26:07;9.70;;;2.27;;
10711;SDS011;5407;51.234;6.804;2023-12-29T03:28:34;10.00;;;2.30;;
10711;SDS011;5407;51.234;6.804;2023-12-29T03:31:01;8.40;;;2.20;;
10711;SDS011;5407;51.234;6.804;2023-12-29T03:33:29;12.03;;;3.03;;
10711;SDS011;5407;51.234;6.804;2023-12-29T03:35:57;9.10;;;2.50;;
10711;SDS011;5407;51.234;6.804;2023-12-29T03:38:24;7.40;;;2.17;;
10711;SDS011;5407;51.234;6.804;2023-12-29T03:40:51;10.20;;;2.33;;
10711;SDS011;5407;51.234;6.804;2023-12-29T03:43:18;6.50;;;2.03;;
10711;SDS011;5407;51.234;6.804;2023-12-29T03:45:45;10.30;;;2.00;;
10711;SDS011;5407;51.234;6.804;2023-12-29T03:48:12;7.23;;;2.00;;
10711;SDS011;5407;51.234;6.804;2023-12-29T03:50:39;7.57;;;2.30;;
10711;SDS011;5407;51.234;6.804;2023-12-29T03:53:07;8.13;;;2.33;;
10711;SDS011;5407;51.234;6.804;2023-12-29T03:55:34;7.97;;;2.10;;
10711;SDS011;5407;51.234;6.804;2023-12-29T03:58:02;8.93;;;2.00;;
10711;SDS011;5407;51.234;6.804;2023-12-29T04:00:29;11.07;;;2.37;;
10711;SDS011;5407;51.234;6.804;2023-12-29T04:02:56;9.10;;;2.10;;
10711;SDS011;5407;51.234;6.804;2023-12-29T04:05:23;8.90;;;1.90;;
10711;SDS011;5407;51.234;6.804;2023-12-29T04:07:50;7.53;;;2.17;;
10711;SDS011;5407;51.234;6.804;2023-12-29T04:10:18;7.67;;;2.33;;
10711;SDS011;5407;51.234;6.804;2023-12-29T04:12:45;9.50;;;2.53;;
10711;SDS011;5407;51.234;6.804;2023-12-29T04:15:12;11.67;;;2.23;;
10711;SDS011;5407;51.234;6.804;2023-12-29T04:17:39;7.93;;;2.43;;
10711;SDS011;5407;51.234;6.804;2023-12-29T04:20:07;9.27;;;2.30;;
10711;SDS011;5407;51.234;6.804;2023-12-29T04:22:34;9.57;;;2.30;;
10711;SDS011;5407;51.234;6.804;2023-12-29T04:25:01;5.00;;;1.97;;
10711;SDS011;5407;51.234;6.804;2023-12-29T04:27:30;9.53;;;2.20;;
10711;SDS011;5407;51.234;6.804;2023-12-29T04:29:57;11.70;;;2.00;;
10711;SDS011;5407;51.234;6.804;2023-12-29T04:32:23;8.03;;;2.00;;
10711;SDS011;5407;51.234;6.804;2023-12-29T04:34:50;6.30;;;1.90;;
10711;SDS011;5407;51.234;6.804;2023-12-29T04:37:17;8.83;;;2.00;;
10711;SDS011;5407;51.234;6.804;2023-12-29T04:39:44;8.67;;;1.97;;
10711;SDS011;5407;51.234;6.804;2023-12-29T04:42:11;8.70;;;2.20;;
10711;SDS011;5407;51.234;6.804;2023-12-29T04:44:39;7.27;;;2.10;;
10711;SDS011;5407;51.234;6.804;2023-12-29T04:47:06;8.07;;;2.07;;
10711;SDS011;5407;51.234;6.804;2023-12-29T04:49:33;12.63;;;2.57;;
10711;SDS011;5407;51.234;6.804;2023-12-29T04:52:00;7.30;;;2.07;;
10711;SDS011;5407;51.234;6.804;2023-12-29T04:54:27;8.90;;;2.07;;
10711;SDS011;5407;51.234;6.804;2023-12-29T04:56:54;4.63;;;1.67;;
10711;SDS011;5407;51.234;6.804;2023-12-29T04:59:21;7.00;;;2.20;;
10711;SDS011;5407;51.234;6.804;2023-12-29T05:01:49;8.73;;;2.10;;
10711;SDS011;5407;51.234;6.804;2023-12-29T05:04:16;7.80;;;2.00;;
10711;SDS011;5407;51.234;6.804;2023-12-29T05:06:43;9.43;;;2.50;;
10711;SDS011;5407;51.234;6.804;2023-12-29T05:09:10;5.47;;;1.90;;
10711;SDS011;5407;51.234;6.804;2023-12-29T05:11:37;8.20;;;2.27;;
10711;SDS011;5407;51.234;6.804;2023-12-29T05:14:03;10.47;;;2.20;;
10711;SDS011;5407;51.234;6.804;2023-12-29T05:16:30;12.90;;;2.43;;
10711;SDS011;5407;51.234;6.804;2023-12-29T05:18:59;7.20;;;1.70;;
10711;SDS011;5407;51.234;6.804;2023-12-29T05:21:25;8.33;;;2.00;;
10711;SDS011;5407;51.234;6.804;2023-12-29T05:23:52;7.93;;;2.00;;
10711;SDS011;5407;51.234;6.804;2023-12-29T05:26:19;10.77;;;2.33;;
10711;SDS011;5407;51.234;6.804;2023-12-29T05:28:46;10.17;;;2.20;;
10711;SDS011;5407;51.234;6.804;2023-12-29T05:31:13;9.50;;;2.23;;
10711;SDS011;5407;51.234;6.804;2023-12-29T05:33:40;7.17;;;2.20;;
10711;SDS011;5407;51.234;6.804;2023-12-29T05:36:09;8.20;;;2.30;;
10711;SDS011;5407;51.234;6.804;2023-12-29T05:38:36;7.93;;;1.90;;
10711;SDS011;5407;51.234;6.804;2023-12-29T05:41:04;5.47;;;1.90;;
10711;SDS011;5407;51.234;6.804;2023-12-29T05:43:31;5.57;;;1.90;;
10711;SDS011;5407;51.234;6.804;2023-12-29T05:45:59;9.60;;;2.37;;
10711;SDS011;5407;51.234;6.804;2023-12-29T05:48:26;9.47;;;2.23;;
10711;SDS011;5407;51.234;6.804;2023-12-29T05:50:54;7.17;;;2.03;;
10711;SDS011;5407;51.234;6.804;2023-12-29T05:53:23;6.87;;;2.13;;
10711;SDS011;5407;51.234;6.804;2023-12-29T05:55:50;8.27;;;2.40;;
10711;SDS011;5407;51.234;6.804;2023-12-29T05:58:17;9.50;;;2.23;;
10711;SDS011;5407;51.234;6.804;2023-12-29T06:00:44;10.00;;;2.20;;
10711;SDS011;5407;51.234;6.804;2023-12-29T06:03:11;13.80;;;2.77;;
10711;SDS011;5407;51.234;6.804;2023-12-29T06:05:38;8.30;;;2.00;;
10711;SDS011;5407;51.234;6.804;2023-12-29T06:08:05;8.23;;;2.47;;
10711;SDS011;5407;51.234;6.804;2023-12-29T06:10:35;14.80;;;2.60;;
10711;SDS011;5407;51.234;6.804;2023-12-29T06:13:03;8.57;;;2.30;;
10711;SDS011;5407;51.234;6.804;2023-12-29T06:15:30;10.07;;;2.10;;
10711;SDS011;5407;51.234;6.804;2023-12-29T06:17:57;8.03;;;2.30;;
10711;SDS011;5407;51.234;6.804;2023-12-29T06:20:24;6.30;;;1.87;;
10711;SDS011;5407;51.234;6.804;2023-12-29T06:22:51;8.37;;;2.33;;
10711;SDS011;5407;51.234;6.804;2023-12-29T06:25:18;15.47;;;2.53;;
10711;SDS011;5407;51.234;6.804;2023-12-29T06:27:47;7.73;;;2.10;;
10711;SDS011;5407;51.234;6.804;2023-12-29T06:30:14;8.53;;;2.00;;
10711;SDS011;5407;51.234;6.804;2023-12-29T06:32:41;7.00;;;1.80;;
10711;SDS011;5407;51.234;6.804;2023-12-29T06:35:08;9.07;;;2.50;;
10711;SDS011;5407;51.234;6.804;2023-12-29T06:37:36;7.77;;;1.93;;
10711;SDS011;5407;51.234;6.804;2023-12-29T06:40:05;7.07;;;1.87;;
10711;SDS011;5407;51.234;6.804;2023-12-29T06:42:33;11.70;;;2.40;;
10711;SDS011;5407;51.234;6.804;2023-12-29T06:45:02;11.87;;;2.23;;
10711;SDS011;5407;51.234;6.804;2023-12-29T06:47:30;6.70;;;1.80;;
10711;SDS011;5407;51.234;6.804;2023-12-29T06:49:57;8.17;;;2.10;;
10711;SDS011;5407;51.234;6.804;2023-12-29T06:52:24;9.60;;;2.10;;
10711;SDS011;5407;51.234;6.804;2023-12-29T06:54:52;8.70;;;2.07;;
10711;SDS011;5407;51.234;6.804;2023-12-29T06:57:19;6.73;;;1.90;;
10711;SDS011;5407;51.234;6.804;2023-12-29T06:59:45;10.70;;;2.17;;
10711;SDS011;5407;51.234;6.804;2023-12-29T07:02:14;13.50;;;2.50;;
10711;SDS011;5407;51.234;6.804;2023-12-29T07:04:41;9.77;;;2.40;;
10711;SDS011;5407;51.234;6.804;2023-12-29T07:07:09;8.87;;;2.07;;
10711;SDS011;5407;51.234;6.804;2023-12-29T07:09:37;7.87;;;2.17;;
10711;SDS011;5407;51.234;6.804;2023-12-29T07:12:05;6.37;;;1.97;;
10711;SDS011;5407;51.234;6.804;2023-12-29T07:14:32;6.60;;;2.10;;
10711;SDS011;5407;51.234;6.804;2023-12-29T07:17:00;9.53;;;2.10;;
10711;SDS011;5407;51.234;6.804;2023-12-29T07:19:29;10.83;;;2.30;;
10711;SDS011;5407;51.234;6.804;2023-12-29T07:22:02;8.10;;;2.10;;
10711;SDS011;5407;51.234;6.804;2023-12-29T07:24:30;14.90;;;2.47;;
10711;SDS011;5407;51.234;6.804;2023-12-29T07:26:57;8.50;;;2.20;;
10711;SDS011;5407;51.234;6.804;2023-12-29T07:29:24;7.60;;;1.90;;
10711;SDS011;5407;51.234;6.804;2023-12-29T07:31:51;9.73;;;2.30;;
10711;SDS011;5407;51.234;6.804;2023-12-29T07:34:18;9.40;;;1.87;;
10711;SDS011;5407;51.234;6.804;2023-12-29T07:36:46;5.23;;;1.77;;
10711;SDS011;5407;51.234;6.804;2023-12-29T07:39:14;5.87;;;1.87;;
10711;SDS011;5407;51.234;6.804;2023-12-29T07:41:41;9.87;;;2.10;;
10711;SDS011;5407;51.234;6.804;2023-12-29T07:44:09;7.63;;;1.80;;
10711;SDS011;5407;51.234;6.804;2023-12-29T07:46:37;8.27;;;2.03;;
10711;SDS011;5407;51.234;6.804;2023-12-29T07:49:04;6.53;;;2.03;;
10711;SDS011;5407;51.234;6.804;2023-12-29T07:51:31;7.60;;;2.00;;
10711;SDS011;5407;51.234;6.804;2023-12-29T07:54:00;7.77;;;2.17;;
10711;SDS011;5407;51.234;6.804;2023-12-29T07:56:27;6.20;;;2.10;;
10711;SDS011;5407;51.234;6.804;2023-12-29T07:58:54;10.13;;;2.20;;
10711;SDS011;5407;51.234;6.804;2023-12-29T08:01:21;4.13;;;1.80;;
10711;SDS011;5407;51.234;6.804;2023-12-29T08:03:48;6.03;;;2.23;;
10711;SDS011;5407;51.234;6.804;2023-12-29T08:06:15;6.97;;;2.00;;
10711;SDS011;5407;51.234;6.804;2023-12-29T08:08:42;5.60;;;1.60;;
10711;SDS011;5407;51.234;6.804;2023-12-29T08:11:14;8.60;;;2.03;;
10711;SDS011;5407;51.234;6.804;2023-12-29T08:13:42;6.80;;;2.07;;
10711;SDS011;5407;51.234;6.804;2023-12-29T08:16:09;6.97;;;2.27;;
10711;SDS011;5407;51.234;6.804;2023-12-29T08:18:36;7.00;;;1.83;;
10711;SDS011;5407;51.234;6.804;2023-12-29T08:21:03;8.70;;;2.07;;
10711;SDS011;5407;51.234;6.804;2023-12-29T08:23:31;8.33;;;2.13;;
10711;SDS011;5407;51.234;6.804;2023-12-29T08:25:57;7.53;;;2.17;;
10711;SDS011;5407;51.234;6.804;2023-12-29T08:28:26;9.70;;;2.20;;
10711;SDS011;5407;51.234;6.804;2023-12-29T08:30:53;5.87;;;1.73;;
10711;SDS011;5407;51.234;6.804;2023-12-29T08:33:20;6.50;;;2.00;;
10711;SDS011;5407;51.234;6.804;2023-12-29T08:35:47;6.27;;;1.83;;
10711;SDS011;5407;51.234;6.804;2023-12-29T08:38:14;5.07;;;1.83;;
10711;SDS011;5407;51.234;6.804;2023-12-29T08:40:40;9.27;;;2.00;;
10711;SDS011;5407;51.234;6.804;2023-12-29T08:43:08;4.40;;;1.57;;
10711;SDS011;5407;51.234;6.804;2023-12-29T08:45:36;8.03;;;1.87;;
10711;SDS011;5407;51.234;6.804;2023-12-29T08:48:04;4.67;;;1.83;;
10711;SDS011;5407;51.234;6.804;2023-12-29T08:50:31;8.80;;;2.20;;
10711;SDS011;5407;51.234;6.804;2023-12-29T08:52:58;5.97;;;1.97;;
10711;SDS011;5407;51.234;6.804;2023-12-29T08:55:25;5.57;;;1.83;;
10711;SDS011;5407;51.234;6.804;2023-12-29T08:57:51;6.27;;;1.83;;
10711;SDS011;5407;51.234;6.804;2023-12-29T09:00:19;7.53;;;1.90;;
10711;SDS011;5407;51.234;6.804;2023-12-29T09:02:47;5.73;;;1.63;;
10711;SDS011;5407;51.234;6.804;2023-12-29T09:05:14;7.20;;;1.70;;
10711;SDS011;5407;51.234;6.804;2023-12-29T09:07:41;6.43;;;1.70;;
10711;SDS011;5407;51.234;6.804;2023-12-29T09:10:08;7.00;;;1.70;;
10711;SDS011;5407;51.234;6.804;2023-12-29T09:12:38;4.07;;;1.63;;
10711;SDS011;5407;51.234;6.804;2023-12-29T09:15:05;3.43;;;1.30;;
10711;SDS011;5407;51.234;6.804;2023-12-29T09:17:32;5.10;;;1.80;;
10711;SDS011;5407;51.234;6.804;2023-12-29T09:20:01;5.17;;;1.83;;
10711;SDS011;5407;51.234;6.804;2023-12-29T09:22:28;4.13;;;1.73;;
10711;SDS011;5407;51.234;6.804;2023-12-29T09:24:55;3.60;;;1.47;;
10711;SDS011;5407;51.234;6.804;2023-12-29T09:27:22;3.30;;;1.47;;
10711;SDS011;5407;51.234;6.804;2023-12-29T09:29:49;3.77;;;1.33;;
10711;SDS011;5407;51.234;6.804;2023-12-29T09:32:16;3.13;;;1.50;;
10711;SDS011;5407;51.234;6.804;2023-12-29T09:34:43;2.70;;;1.40;;
10711;SDS011;5407;51.234;6.804;2023-12-29T09:37:11;2.27;;;1.50;;
10711;SDS011;5407;51.234;6.804;2023-12-29T09:39:39;3.77;;;2.10;;
10711;SDS011;5407;51.234;6.804;2023-12-29T09:42:06;6.30;;;1.63;;
10711;SDS011;5407;51.234;6.804;2023-12-29T09:44:35;4.47;;;1.53;;
10711;SDS011;5407;51.234;6.804;2023-12-29T09:47:03;7.90;;;1.93;;
10711;SDS011;5407;51.234;6.804;2023-12-29T09:49:31;3.13;;;1.30;;
10711;SDS011;5407;51.234;6.804;2023-12-29T09:52:03;3.27;;;1.33;;
10711;SDS011;5407;51.234;6.804;2023-12-29T09:54:33;2.37;;;1.50;;
10711;SDS011;5407;51.234;6.804;2023-12-29T09:57:03;4.77;;;1.60;;
10711;SDS011;5407;51.234;6.804;2023-12-29T09:59:31;4.40;;;1.53;;
10711;SDS011;5407;51.234;6.804;2023-12-29T10:02:02;7.37;;;2.10;;
10711;SDS011;5407;51.234;6.804;2023-12-29T10:04:30;4.93;;;1.70;;
10711;SDS011;5407;51.234;6.804;2023-12-29T10:06:59;4.83;;;1.67;;
10711;SDS011;5407;51.234;6.804;2023-12-29T10:09:30;7.83;;;2.17;;
10711;SDS011;5407;51.234;6.804;2023-12-29T10:12:00;6.53;;;1.70;;
10711;SDS011;5407;51.234;6.804;2023-12-29T10:14:31;7.33;;;2.13;;
10711;SDS011;5407;51.234;6.804;2023-12-29T10:17:09;6.90;;;1.73;;
10711;SDS011;5407;51.234;6.804;2023-12-29T10:19:45;8.20;;;2.00;;
10711;SDS011;5407;51.234;6.804;2023-12-29T10:22:21;6.47;;;2.03;;
10711;SDS011;5407;51.234;6.804;2023-12-29T10:24:53;7.33;;;1.77;;
10711;SDS011;5407;51.234;6.804;2023-12-29T10:27:21;5.70;;;1.57;;
10711;SDS011;5407;51.234;6.804;2023-12-29T10:29:48;6.67;;;1.90;;
10711;SDS011;5407;51.234;6.804;2023-12-29T10:32:15;5.17;;;1.90;;
10711;SDS011;5407;51.234;6.804;2023-12-29T10:34:43;8.20;;;2.10;;
10711;SDS011;5407;51.234;6.804;2023-12-29T10:37:11;8.67;;;2.10;;
10711;SDS011;5407;51.234;6.804;2023-12-29T10:39:54;6.80;;;1.90;;
10711;SDS011;5407;51.234;6.804;2023-12-29T10:42:23;5.00;;;1.90;;
10711;SDS011;5407;51.234;6.804;2023-12-29T10:44:53;10.13;;;1.93;;
10711;SDS011;5407;51.234;6.804;2023-12-29T10:47:32;6.63;;;1.83;;
10711;SDS011;5407;51.234;6.804;2023-12-29T10:50:01;7.83;;;1.97;;
10711;SDS011;5407;51.234;6.804;2023-12-29T10:52:29;6.80;;;1.80;;
10711;SDS011;5407;51.234;6.804;2023-12-29T10:55:05;6.47;;;2.03;;
10711;SDS011;5407;51.234;6.804;2023-12-29T10:57:33;6.40;;;1.97;;
10711;SDS011;5407;51.234;6.804;2023-12-29T11:00:00;7.83;;;1.83;;
10711;SDS011;5407;51.234;6.804;2023-12-29T11:02:29;6.00;;;1.60;;
10711;SDS011;5407;51.234;6.804;2023-12-29T11:05:02;6.00;;;1.50;;
10711;SDS011;5407;51.234;6.804;2023-12-29T11:07:33;5.33;;;1.53;;
10711;SDS011;5407;51.234;6.804;2023-12-29T11:10:02;4.30;;;1.50;;
10711;SDS011;5407;51.234;6.804;2023-12-29T11:12:33;6.73;;;1.63;;
10711;SDS011;5407;51.234;6.804;2023-12-29T11:15:02;6.27;;;1.63;;
10711;SDS011;5407;51.234;6.804;2023-12-29T11:17:31;4.07;;;1.60;;
10711;SDS011;5407;51.234;6.804;2023-12-29T11:19:59;8.50;;;1.77;;
10711;SDS011;5407;51.234;6.804;2023-12-29T11:22:28;4.63;;;1.30;;
10711;SDS011;5407;51.234;6.804;2023-12-29T11:24:56;6.30;;;1.40;;
10711;SDS011;5407;51.234;6.804;2023-12-29T11:27:28;3.43;;;1.30;;
10711;SDS011;5407;51.234;6.804;2023-12-29T11:29:57;3.27;;;1.40;;
10711;SDS011;5407;51.234;6.804;2023-12-29T11:32:27;6.70;;;1.63;;
10711;SDS011;5407;51.234;6.804;2023-12-29T11:35:11;3.63;;;1.20;;
10711;SDS011;5407;51.234;6.804;2023-12-29T11:38:04;5.50;;;1.70;;
10711;SDS011;5407;51.234;6.804;2023-12-29T11:40:44;4.80;;;1.83;;
10711;SDS011;5407;51.234;6.804;2023-12-29T11:43:16;5.67;;;1.53;;
10711;SDS011;5407;51.234;6.804;2023-12-29T11:45:46;5.83;;;1.77;;
10711;SDS011;5407;51.234;6.804;2023-12-29T11:48:14;5.47;;;1.80;;
10711;SDS011;5407;51.234;6.804;2023-12-29T11:51:33;4.67;;;1.93;;
10711;SDS011;5407;51.234;6.804;2023-12-29T11:54:02;7.07;;;2.07;;
10711;SDS011;5407;51.234;6.804;2023-12-29T11:56:34;5.43;;;1.60;;
10711;SDS011;5407;51.234;6.804;2023-12-29T11:59:17;7.97;;;2.00;;
10711;SDS011;5407;51.234;6.804;2023-12-29T12:01:48;9.83;;;1.80;;
10711;SDS011;5407;51.234;6.804;2023-12-29T12:07:07;5.63;;;1.73;;
10711;SDS011;5407;51.234;6.804;2023-12-29T12:09:35;4.17;;;1.40;;
10711;SDS011;5407;51.234;6.804;2023-12-29T12:12:02;3.57;;;1.60;;
10711;SDS011;5407;51.234;6.804;2023-12-29T12:14:43;2.47;;;1.20;;
10711;SDS011;5407;51.234;6.804;2023-12-29T12:17:33;3.20;;;1.17;;
10711;SDS011;5407;51.234;6.804;2023-12-29T12:20:03;3.33;;;1.30;;
10711;SDS011;5407;51.234;6.804;2023-12-29T12:22:33;2.67;;;1.10;;
10711;SDS011;5407;51.234;6.804;2023-12-29T12:25:02;3.17;;;1.20;;
10711;SDS011;5407;51.234;6.804;2023-12-29T12:27:30;2.47;;;1.27;;
10711;SDS011;5407;51.234;6.804;2023-12-29T12:29:57;2.63;;;1.20;;
10711;SDS011;5407;51.234;6.804;2023-12-29T12:32:26;5.60;;;1.50;;
10711;SDS011;5407;51.234;6.804;2023-12-29T12:34:55;4.23;;;1.47;;
10711;SDS011;5407;51.234;6.804;2023-12-29T12:37:22;8.80;;;2.03;;
10711;SDS011;5407;51.234;6.804;2023-12-29T12:39:50;5.83;;;1.80;;
10711;SDS011;5407;51.234;6.804;2023-12-29T12:42:18;5.73;;;1.70;;
10711;SDS011;5407;51.234;6.804;2023-12-29T12:44:47;6.07;;;1.80;;
10711;SDS011;5407;51.234;6.804;2023-12-29T12:47:23;4.10;;;1.50;;
10711;SDS011;5407;51.234;6.804;2023-12-29T12:49:54;3.27;;;1.20;;
10711;SDS011;5407;51.234;6.804;2023-12-29T12:52:21;4.00;;;1.10;;
10711;SDS011;5407;51.234;6.804;2023-12-29T12:54:48;4.30;;;1.47;;
10711;SDS011;5407;51.234;6.804;2023-12-29T12:57:19;5.20;;;1.40;;
10711;SDS011;5407;51.234;6.804;2023-12-29T12:59:47;3.10;;;1.23;;
10711;SDS011;5407;51.234;6.804;2023-12-29T13:02:15;4.43;;;1.17;;
10711;SDS011;5407;51.234;6.804;2023-12-29T13:04:42;3.47;;;1.40;;
10711;SDS011;5407;51.234;6.804;2023-12-29T13:07:11;5.20;;;1.43;;
10711;SDS011;5407;51.234;6.804;2023-12-29T13:09:42;6.23;;;1.47;;
10711;SDS011;5407;51.234;6.804;2023-12-29T13:12:10;4.10;;;1.53;;
10711;SDS011;5407;51.234;6.804;2023-12-29T13:14:37;5.73;;;1.60;;
10711;SDS011;5407;51.234;6.804;2023-12-29T13:17:06;4.03;;;1.90;;
10711;SDS011;5407;51.234;6.804;2023-12-29T13:19:34;2.93;;;1.60;;
10711;SDS011;5407;51.234;6.804;2023-12-29T13:22:01;5.03;;;1.80;;
10711;SDS011;5407;51.234;6.804;2023-12-29T13:24:30;4.57;;;1.73;;
10711;SDS011;5407;51.234;6.804;2023-12-29T13:27:01;5.33;;;1.80;;
10711;SDS011;5407;51.234;6.804;2023-12-29T13:29:31;4.27;;;1.77;;
10711;SDS011;5407;51.234;6.804;2023-12-29T13:31:59;3.93;;;1.50;;
10711;SDS011;5407;51.234;6.804;2023-12-29T13:34:30;4.40;;;1.23;;
10711;SDS011;5407;51.234;6.804;2023-12-29T13:37:01;5.97;;;1.30;;
10711;SDS011;5407;51.234;6.804;2023-12-29T13:39:35;4.73;;;1.43;;
10711;SDS011;5407;51.234;6.804;2023-12-29T13:42:04;5.60;;;1.60;;
10711;SDS011;5407;51.234;6.804;2023-12-29T13:44:35;4.13;;;1.43;;
10711;SDS011;5407;51.234;6.804;2023-12-29T13:47:05;3.30;;;1.40;;
10711;SDS011;5407;51.234;6.804;2023-12-29T13:49:32;3.53;;;1.60;;
10711;SDS011;5407;51.234;6.804;2023-12-29T13:52:02;5.67;;;1.40;;
10711;SDS011;5407;51.234;6.804;2023-12-29T13:54:29;3.80;;;1.50;;
10711;SDS011;5407;51.234;6.804;2023-12-29T13:56:57;2.83;;;1.53;;
10711;SDS011;5407;51.234;6.804;2023-12-29T13:59:30;4.23;;;1.43;;
10711;SDS011;5407;51.234;6.804;2023-12-29T14:01:58;3.60;;;1.30;;
10711;SDS011;5407;51.234;6.804;2023-12-29T14:04:26;3.43;;;1.50;;
10711;SDS011;5407;51.234;6.804;2023-12-29T14:06:53;4.47;;;1.30;;
10711;SDS011;5407;51.234;6.804;2023-12-29T14:09:26;3.40;;;1.50;;
10711;SDS011;5407;51.234;6.804;2023-12-29T14:11:53;3.13;;;1.40;;
10711;SDS011;5407;51.234;6.804;2023-12-29T14:14:24;4.10;;;1.73;;
10711;SDS011;5407;51.234;6.804;2023-12-29T14:16:51;4.50;;;1.60;;
10711;SDS011;5407;51.234;6.804;2023-12-29T14:19:18;3.73;;;1.50;;
10711;SDS011;5407;51.234;6.804;2023-12-29T14:21:45;4.77;;;1.77;;
10711;SDS011;5407;51.234;6.804;2023-12-29T14:24:15;3.20;;;1.40;;
10711;SDS011;5407;51.234;6.804;2023-12-29T14:26:43;1.73;;;1.20;;
10711;SDS011;5407;51.234;6.804;2023-12-29T14:29:21;3.00;;;1.20;;
10711;SDS011;5407;51.234;6.804;2023-12-29T14:31:50;1.47;;;1.10;;
10711;SDS011;5407;51.234;6.804;2023-12-29T14:34:17;1.67;;;0.90;;
10711;SDS011;5407;51.234;6.804;2023-12-29T14:36:45;3.47;;;1.20;;
10711;SDS011;5407;51.234;6.804;2023-12-29T14:39:12;2.90;;;1.30;;
10711;SDS011;5407;51.234;6.804;2023-12-29T14:41:40;2.50;;;1.03;;
10711;SDS011;5407;51.234;6.804;2023-12-29T14:44:07;2.23;;;1.20;;
10711;SDS011;5407;51.234;6.804;2023-12-29T14:46:34;1.53;;;0.70;;
10711;SDS011;5407;51.234;6.804;2023-12-29T14:49:03;1.00;;;0.60;;
10711;SDS011;5407;51.234;6.804;2023-12-29T14:51:30;0.90;;;0.70;;
10711;SDS011;5407;51.234;6.804;2023-12-29T14:53:58;0.47;;;0.47;;
10711;SDS011;5407;51.234;6.804;2023-12-29T14:56:25;2.33;;;0.80;;
10711;SDS011;5407;51.234;6.804;2023-12-29T14:58:51;1.77;;;1.07;;
10711;SDS011;5407;51.234;6.804;2023-12-29T15:01:18;1.00;;;0.87;;
10711;SDS011;5407;51.234;6.804;2023-12-29T15:03:45;1.17;;;0.80;;
10711;SDS011;5407;51.234;6.804;2023-12-29T15:06:14;0.60;;;0.60;;
10711;SDS011;5407;51.234;6.804;2023-12-29T15:08:41;2.43;;;0.87;;
10711;SDS011;5407;51.234;6.804;2023-12-29T15:11:07;1.53;;;0.93;;
10711;SDS011;5407;51.234;6.804;2023-12-29T15:13:34;1.00;;;0.90;;